PWSweather.com
Personal Weather Stations
Station Observations
MIKESPOST
YorkGB

YorkGB

Lat: 53.9577018, Lon: -1.0822855

Elevation: 0

Station Type: WH1081

High Low Average
Temperature 62.6°F17.0°F 44.1°F6.7°F 53.9°F12.2°F
Dew Point 53.4°F11.9°F 39.4°F4.1°F 47.9°F8.8°F
Winds 8.8 mph E14.2 mph E Calm Calm 3.2 mph 5.1 mph
Wind Gusts 15.1 mph24.3 mph -- 6.4 mph10.3 mph
Humidity 90% 61% 80%
Pressure 29.71 in1006.10 in 29.64 in1003.70 in -
Precipitation 0.00 in0.00 in - -
Hour Temp Dew Point Humidity Winds Wind Gusts Pressure Precip Precip Rate Daily Precip Total
12:00 AM 56.5°F13.6°C 52.4°F11.3°C 86% 4.0 mph E6.4 kmh E 7.8 mph12.6 kmh 29.67 in1004.7 mb 0.00 in0.0 mm 0.00 in/hr0.0 mm/hr 0.00 in0.0 mm
12:20 AM 56.7°F13.7°C 52.5°F11.4°C 86% 5.8 mph SE9.3 kmh SE 9.5 mph15.3 kmh 29.67 in1004.7 mb 0.00 in0.0 mm 0.00 in/hr0.0 mm/hr 0.00 in0.0 mm
12:40 AM 57.0°F13.9°C 52.6°F11.4°C 85% 5.1 mph SSE8.2 kmh SSE 7.8 mph12.6 kmh 29.67 in1004.7 mb 0.00 in0.0 mm 0.00 in/hr0.0 mm/hr 0.00 in0.0 mm
01:00 AM 56.8°F13.8°C 52.4°F11.3°C 85% 2.5 mph S4.0 kmh S 5.6 mph9.0 kmh 29.66 in1004.4 mb 0.00 in0.0 mm 0.00 in/hr0.0 mm/hr 0.00 in0.0 mm
01:20 AM 56.3°F13.5°C 51.9°F11.1°C 85% 0.2 mph SSE0.3 kmh SSE 1.7 mph2.7 kmh 29.66 in1004.4 mb 0.00 in0.0 mm 0.00 in/hr0.0 mm/hr 0.00 in0.0 mm
01:40 AM 55.9°F13.3°C 51.8°F11.0°C 86% 2.6 mph S4.2 kmh S 5.6 mph9.0 kmh 29.66 in1004.4 mb 0.00 in0.0 mm 0.00 in/hr0.0 mm/hr 0.00 in0.0 mm
02:00 AM 56.3°F13.5°C 52.5°F11.4°C 87% 4.4 mph ESE7.1 kmh ESE 7.8 mph12.6 kmh 29.65 in1004.1 mb 0.00 in0.0 mm 0.00 in/hr0.0 mm/hr 0.00 in0.0 mm
02:20 AM 56.1°F13.4°C 52.3°F11.3°C 87% 3.3 mph SSE5.3 kmh SSE 5.6 mph9.0 kmh 29.65 in1004.1 mb 0.00 in0.0 mm 0.00 in/hr0.0 mm/hr 0.00 in0.0 mm
02:40 AM 55.6°F13.1°C 51.8°F11.0°C 87% 2.7 mph SE4.3 kmh SE 7.8 mph12.6 kmh 29.65 in1004.1 mb 0.00 in0.0 mm 0.00 in/hr0.0 mm/hr 0.00 in0.0 mm
03:00 AM 55.6°F13.1°C 51.8°F11.0°C 87% 4.0 mph SE6.4 kmh SE 7.8 mph12.6 kmh 29.64 in1003.7 mb 0.00 in0.0 mm 0.00 in/hr0.0 mm/hr 0.00 in0.0 mm
03:20 AM 55.4°F13.0°C 51.9°F11.1°C 88% 6.5 mph SE10.5 kmh SE 11.2 mph18.0 kmh 29.65 in1004.1 mb 0.00 in0.0 mm 0.00 in/hr0.0 mm/hr 0.00 in0.0 mm
03:40 AM 55.6°F13.1°C 52.1°F11.2°C 88% 4.6 mph SE7.4 kmh SE 7.8 mph12.6 kmh 29.65 in1004.1 mb 0.00 in0.0 mm 0.00 in/hr0.0 mm/hr 0.00 in0.0 mm
04:00 AM 55.0°F12.8°C 51.6°F10.9°C 88% 0.5 mph WSW0.8 kmh WSW 1.7 mph2.7 kmh 29.66 in1004.4 mb 0.00 in0.0 mm 0.00 in/hr0.0 mm/hr 0.00 in0.0 mm
04:20 AM 54.7°F12.6°C 51.5°F10.8°C 89% 1.9 mph S3.1 kmh S 5.6 mph9.0 kmh 29.66 in1004.4 mb 0.00 in0.0 mm 0.00 in/hr0.0 mm/hr 0.00 in0.0 mm
04:40 AM 54.5°F12.5°C 51.3°F10.7°C 89% 1.6 mph SE2.6 kmh SE 5.6 mph9.0 kmh 29.66 in1004.4 mb 0.00 in0.0 mm 0.00 in/hr0.0 mm/hr 0.00 in0.0 mm
05:00 AM 54.1°F12.3°C 50.7°F10.4°C 88% 0.3 mph S0.5 kmh S 1.7 mph2.7 kmh 29.65 in1004.1 mb 0.00 in0.0 mm 0.00 in/hr0.0 mm/hr 0.00 in0.0 mm
05:20 AM 54.0°F12.2°C 50.5°F10.3°C 88% 0.3 mph SSE0.5 kmh SSE 1.7 mph2.7 kmh 29.65 in1004.1 mb 0.00 in0.0 mm 0.00 in/hr0.0 mm/hr 0.00 in0.0 mm
05:40 AM 53.1°F11.7°C 49.3°F9.6°C 87% Calm Calm -- 29.65 in1004.1 mb 0.00 in0.0 mm 0.00 in/hr0.0 mm/hr 0.00 in0.0 mm
06:00 AM 53.2°F11.8°C 50.1°F10.1°C 89% 1.1 mph S1.8 kmh S 3.9 mph6.3 kmh 29.65 in1004.1 mb 0.00 in0.0 mm 0.00 in/hr0.0 mm/hr 0.00 in0.0 mm
06:20 AM 53.1°F11.7°C 49.9°F9.9°C 89% 2.2 mph ESE3.5 kmh ESE 3.9 mph6.3 kmh 29.66 in1004.4 mb 0.00 in0.0 mm 0.00 in/hr0.0 mm/hr 0.00 in0.0 mm
06:40 AM 52.5°F11.4°C 49.1°F9.5°C 88% 0.4 mph WSW0.6 kmh WSW 1.7 mph2.7 kmh 29.67 in1004.7 mb 0.00 in0.0 mm 0.00 in/hr0.0 mm/hr 0.00 in0.0 mm
07:00 AM 52.0°F11.1°C 48.8°F9.3°C 89% 0.1 mph SE0.2 kmh SE 1.7 mph2.7 kmh 29.67 in1004.7 mb 0.00 in0.0 mm 0.00 in/hr0.0 mm/hr 0.00 in0.0 mm
07:20 AM 52.5°F11.4°C 49.7°F9.8°C 90% Calm Calm -- 29.68 in1005.1 mb 0.00 in0.0 mm 0.00 in/hr0.0 mm/hr 0.00 in0.0 mm
07:40 AM 53.2°F11.8°C 50.4°F10.2°C 90% 2.2 mph E3.5 kmh E 3.9 mph6.3 kmh 29.68 in1005.1 mb 0.00 in0.0 mm 0.00 in/hr0.0 mm/hr 0.00 in0.0 mm
08:00 AM 54.1°F12.3°C 51.3°F10.7°C 90% 2.3 mph E3.7 kmh E 7.8 mph12.6 kmh 29.68 in1005.1 mb 0.00 in0.0 mm 0.00 in/hr0.0 mm/hr 0.00 in0.0 mm
08:20 AM 54.7°F12.6°C 51.5°F10.8°C 89% 2.4 mph SSE3.9 kmh SSE 5.6 mph9.0 kmh 29.68 in1005.1 mb 0.00 in0.0 mm 0.00 in/hr0.0 mm/hr 0.00 in0.0 mm
08:40 AM 55.2°F12.9°C 51.4°F10.8°C 87% 3.5 mph E5.6 kmh E 7.8 mph12.6 kmh 29.68 in1005.1 mb 0.00 in0.0 mm 0.00 in/hr0.0 mm/hr 0.00 in0.0 mm
09:00 AM 55.2°F12.9°C 50.8°F10.4°C 85% 4.8 mph E7.7 kmh E 9.5 mph15.3 kmh 29.68 in1005.1 mb 0.00 in0.0 mm 0.00 in/hr0.0 mm/hr 0.00 in0.0 mm
09:20 AM 55.8°F13.2°C 51.0°F10.6°C 84% 6.7 mph E10.8 kmh E 11.2 mph18.0 kmh 29.68 in1005.1 mb 0.00 in0.0 mm 0.00 in/hr0.0 mm/hr 0.00 in0.0 mm
09:40 AM 56.1°F13.4°C 51.4°F10.8°C 84% 4.9 mph E7.9 kmh E 7.8 mph12.6 kmh 29.69 in1005.4 mb 0.00 in0.0 mm 0.00 in/hr0.0 mm/hr 0.00 in0.0 mm
10:00 AM 56.1°F13.4°C 51.0°F10.6°C 83% 4.3 mph SE6.9 kmh SE 5.6 mph9.0 kmh 29.69 in1005.4 mb 0.00 in0.0 mm 0.00 in/hr0.0 mm/hr 0.00 in0.0 mm
10:20 AM 56.1°F13.4°C 50.7°F10.4°C 82% 6.2 mph E10.0 kmh E 9.5 mph15.3 kmh 29.69 in1005.4 mb 0.00 in0.0 mm 0.00 in/hr0.0 mm/hr 0.00 in0.0 mm
10:40 AM 56.8°F13.8°C 51.4°F10.8°C 82% 5.4 mph ESE8.7 kmh ESE 11.2 mph18.0 kmh 29.69 in1005.4 mb 0.00 in0.0 mm 0.00 in/hr0.0 mm/hr 0.00 in0.0 mm
11:00 AM 57.6°F14.2°C 51.8°F11.0°C 81% 6.4 mph E10.3 kmh E 9.5 mph15.3 kmh 29.68 in1005.1 mb 0.00 in0.0 mm 0.00 in/hr0.0 mm/hr 0.00 in0.0 mm
11:20 AM 59.5°F15.3°C 53.4°F11.9°C 80% 7.6 mph SE12.2 kmh SE 15.1 mph24.3 kmh 29.68 in1005.1 mb 0.00 in0.0 mm 0.00 in/hr0.0 mm/hr 0.00 in0.0 mm
11:40 AM 59.5°F15.3°C 51.6°F10.9°C 75% 7.3 mph E11.7 kmh E 9.5 mph15.3 kmh 29.68 in1005.1 mb 0.00 in0.0 mm 0.00 in/hr0.0 mm/hr 0.00 in0.0 mm
12:00 PM 60.1°F15.6°C 52.5°F11.4°C 76% 5.7 mph E9.2 kmh E 7.8 mph12.6 kmh 29.67 in1004.7 mb 0.00 in0.0 mm 0.00 in/hr0.0 mm/hr 0.00 in0.0 mm
12:20 PM 61.5°F16.4°C 53.2°F11.8°C 74% 8.8 mph E14.2 kmh E 15.1 mph24.3 kmh 29.66 in1004.4 mb 0.00 in0.0 mm 0.00 in/hr0.0 mm/hr 0.00 in0.0 mm
12:40 PM 62.6°F17.0°C 50.3°F10.2°C 64% 7.9 mph S12.7 kmh S 13.4 mph21.6 kmh 29.66 in1004.4 mb 0.00 in0.0 mm 0.00 in/hr0.0 mm/hr 0.00 in0.0 mm
01:00 PM 61.2°F16.2°C 49.3°F9.6°C 65% 7.1 mph ESE11.4 kmh ESE 11.2 mph18.0 kmh 29.65 in1004.1 mb 0.00 in0.0 mm 0.00 in/hr0.0 mm/hr 0.00 in0.0 mm
01:20 PM 59.4°F15.2°C 48.4°F9.1°C 67% 6.6 mph ESE10.6 kmh ESE 11.2 mph18.0 kmh 29.65 in1004.1 mb 0.00 in0.0 mm 0.00 in/hr0.0 mm/hr 0.00 in0.0 mm
01:40 PM 59.2°F15.1°C 48.6°F9.2°C 68% 6.4 mph ENE10.3 kmh ENE 9.5 mph15.3 kmh 29.65 in1004.1 mb 0.00 in0.0 mm 0.00 in/hr0.0 mm/hr 0.00 in0.0 mm
02:00 PM 60.3°F15.7°C 49.3°F9.6°C 67% 6.2 mph ESE10.0 kmh ESE 13.4 mph21.6 kmh 29.64 in1003.7 mb 0.00 in0.0 mm 0.00 in/hr0.0 mm/hr 0.00 in0.0 mm
02:20 PM 60.4°F15.8°C 46.9°F8.3°C 61% 7.3 mph E11.7 kmh E 13.4 mph21.6 kmh 29.64 in1003.7 mb 0.00 in0.0 mm 0.00 in/hr0.0 mm/hr 0.00 in0.0 mm
02:40 PM 59.5°F15.3°C 47.4°F8.6°C 64% 4.3 mph SE6.9 kmh SE 9.5 mph15.3 kmh 29.64 in1003.7 mb 0.00 in0.0 mm 0.00 in/hr0.0 mm/hr 0.00 in0.0 mm
03:00 PM 58.5°F14.7°C 47.2°F8.4°C 66% 4.5 mph E7.2 kmh E 11.2 mph18.0 kmh 29.64 in1003.7 mb 0.00 in0.0 mm 0.00 in/hr0.0 mm/hr 0.00 in0.0 mm
03:20 PM 57.9°F14.4°C 47.4°F8.6°C 68% 2.7 mph S4.3 kmh S 11.2 mph18.0 kmh 29.65 in1004.1 mb 0.00 in0.0 mm 0.00 in/hr0.0 mm/hr 0.00 in0.0 mm
03:40 PM 56.8°F13.8°C 45.6°F7.6°C 66% 3.7 mph SE6.0 kmh SE 7.8 mph12.6 kmh 29.65 in1004.1 mb 0.00 in0.0 mm 0.00 in/hr0.0 mm/hr 0.00 in0.0 mm
04:00 PM 56.3°F13.5°C 45.1°F7.3°C 66% 3.0 mph SW4.8 kmh SW 7.8 mph12.6 kmh 29.65 in1004.1 mb 0.00 in0.0 mm 0.00 in/hr0.0 mm/hr 0.00 in0.0 mm
04:20 PM 55.4°F13.0°C 45.0°F7.2°C 68% 0.6 mph SSE1.0 kmh SSE 3.9 mph6.3 kmh 29.65 in1004.1 mb 0.00 in0.0 mm 0.00 in/hr0.0 mm/hr 0.00 in0.0 mm
04:40 PM 54.9°F12.7°C 44.9°F7.2°C 69% 2.8 mph SE4.5 kmh SE 5.6 mph9.0 kmh 29.64 in1003.7 mb 0.00 in0.0 mm 0.00 in/hr0.0 mm/hr 0.00 in0.0 mm
05:00 PM 53.8°F12.1°C 43.9°F6.6°C 69% 5.1 mph SE8.2 kmh SE 11.2 mph18.0 kmh 29.65 in1004.1 mb 0.00 in0.0 mm 0.00 in/hr0.0 mm/hr 0.00 in0.0 mm
05:20 PM 52.9°F11.6°C 43.4°F6.3°C 70% 3.7 mph W6.0 kmh W 9.5 mph15.3 kmh 29.65 in1004.1 mb 0.00 in0.0 mm 0.00 in/hr0.0 mm/hr 0.00 in0.0 mm
05:40 PM 52.3°F11.3°C 43.2°F6.2°C 71% 2.1 mph E3.4 kmh E 5.6 mph9.0 kmh 29.65 in1004.1 mb 0.00 in0.0 mm 0.00 in/hr0.0 mm/hr 0.00 in0.0 mm
06:00 PM 50.9°F10.5°C 42.2°F5.7°C 72% 0.2 mph NE0.3 kmh NE 1.7 mph2.7 kmh 29.66 in1004.4 mb 0.00 in0.0 mm 0.00 in/hr0.0 mm/hr 0.00 in0.0 mm
06:20 PM 50.2°F10.1°C 42.6°F5.9°C 75% 0.1 mph S0.2 kmh S 1.7 mph2.7 kmh 29.66 in1004.4 mb 0.00 in0.0 mm 0.00 in/hr0.0 mm/hr 0.00 in0.0 mm
06:40 PM 48.7°F9.3°C 41.9°F5.5°C 77% 0.1 mph S0.2 kmh S 1.7 mph2.7 kmh 29.67 in1004.7 mb 0.00 in0.0 mm 0.00 in/hr0.0 mm/hr 0.00 in0.0 mm
07:00 PM 48.4°F9.1°C 41.8°F5.4°C 78% Calm Calm -- 29.67 in1004.7 mb 0.00 in0.0 mm 0.00 in/hr0.0 mm/hr 0.00 in0.0 mm
07:20 PM 47.1°F8.4°C 40.9°F4.9°C 79% Calm Calm -- 29.68 in1005.1 mb 0.00 in0.0 mm 0.00 in/hr0.0 mm/hr 0.00 in0.0 mm
07:40 PM 46.8°F8.2°C 40.9°F4.9°C 80% 0.7 mph WNW1.1 kmh WNW 1.7 mph2.7 kmh 29.67 in1004.7 mb 0.00 in0.0 mm 0.00 in/hr0.0 mm/hr 0.00 in0.0 mm
08:00 PM 47.8°F8.8°C 42.0°F5.6°C 80% 2.5 mph SE4.0 kmh SE 3.9 mph6.3 kmh 29.68 in1005.1 mb 0.00 in0.0 mm 0.00 in/hr0.0 mm/hr 0.00 in0.0 mm
08:20 PM 47.1°F8.4°C 40.9°F4.9°C 79% Calm Calm -- 29.68 in1005.1 mb 0.00 in0.0 mm 0.00 in/hr0.0 mm/hr 0.00 in0.0 mm
08:40 PM 46.2°F7.9°C 40.7°F4.8°C 81% Calm Calm -- 29.68 in1005.1 mb 0.00 in0.0 mm 0.00 in/hr0.0 mm/hr 0.00 in0.0 mm
09:00 PM 45.1°F7.3°C 40.0°F4.4°C 82% Calm Calm -- 29.70 in1005.8 mb 0.00 in0.0 mm 0.00 in/hr0.0 mm/hr 0.00 in0.0 mm
09:20 PM 44.2°F6.8°C 39.4°F4.1°C 83% Calm Calm -- 29.69 in1005.4 mb 0.00 in0.0 mm 0.00 in/hr0.0 mm/hr 0.00 in0.0 mm
09:40 PM 44.1°F6.7°C 39.8°F4.3°C 85% Calm Calm -- 29.69 in1005.4 mb 0.00 in0.0 mm 0.00 in/hr0.0 mm/hr 0.00 in0.0 mm
10:00 PM 44.2°F6.8°C 40.3°F4.6°C 86% Calm Calm -- 29.69 in1005.4 mb 0.00 in0.0 mm 0.00 in/hr0.0 mm/hr 0.00 in0.0 mm
10:20 PM 45.7°F7.6°C 42.0°F5.6°C 87% 1.5 mph SE2.4 kmh SE 3.9 mph6.3 kmh 29.70 in1005.8 mb 0.00 in0.0 mm 0.00 in/hr0.0 mm/hr 0.00 in0.0 mm
10:40 PM 46.9°F8.3°C 43.6°F6.4°C 88% 4.0 mph E6.4 kmh E 15.1 mph24.3 kmh 29.70 in1005.8 mb 0.00 in0.0 mm 0.00 in/hr0.0 mm/hr 0.00 in0.0 mm
11:00 PM 48.0°F8.9°C 44.0°F6.7°C 86% 4.5 mph SE7.2 kmh SE 11.2 mph18.0 kmh 29.70 in1005.8 mb 0.00 in0.0 mm 0.00 in/hr0.0 mm/hr 0.00 in0.0 mm
11:20 PM 48.2°F9.0°C 43.9°F6.6°C 85% 4.1 mph SE6.6 kmh SE 9.5 mph15.3 kmh 29.70 in1005.8 mb 0.00 in0.0 mm 0.00 in/hr0.0 mm/hr 0.00 in0.0 mm
11:40 PM 48.0°F8.9°C 43.7°F6.5°C 85% 3.1 mph ENE5.0 kmh ENE 7.8 mph12.6 kmh 29.71 in1006.1 mb 0.00 in0.0 mm 0.00 in/hr0.0 mm/hr 0.00 in0.0 mm